Time,TemperatureF,DewpointF,PressureIn,WindDirection,WindDirectionDegrees,WindSpeedMPH,WindSpeedGustMPH,Humidity,HourlyPrecipIn,Conditions,Clouds,dailyrainin,SoftwareType,DateUTC
2013-02-16 00:02:00,34.0,-99.9,-100.00,SW,232,1.0,2.0,-999,-99.99,,,-99.99,,2013-02-16 08:02:00,
2013-02-16 00:11:00,34.0,-99.9,-100.00,SW,232,1.0,2.0,-999,-99.99,,,-99.99,,2013-02-16 08:11:00,
2013-02-16 01:02:00,36.0,-99.9,-100.00,NW,319,1.0,2.0,-999,-99.99,,,-99.99,,2013-02-16 09:02:00,
2013-02-16 01:11:00,36.0,-99.9,-100.00,NW,319,1.0,2.0,-999,-99.99,,,-99.99,,2013-02-16 09:11:00,
2013-02-16 02:01:00,34.0,-99.9,-100.00,NNE,30,2.0,2.0,-999,-99.99,,,-99.99,,2013-02-16 10:01:00,
2013-02-16 02:11:00,34.0,-99.9,-100.00,NNE,30,2.0,2.0,-999,-99.99,,,-99.99,,2013-02-16 10:11:00,
2013-02-16 03:02:00,31.0,-99.9,-100.00,East,80,1.0,1.0,-999,-99.99,,,-99.99,,2013-02-16 11:02:00,
2013-02-16 03:11:00,31.0,-99.9,-100.00,East,80,1.0,1.0,-999,-99.99,,,-99.99,,2013-02-16 11:11:00,
2013-02-16 04:02:00,32.0,-99.9,-100.00,East,94,3.0,5.0,-999,-99.99,,,-99.99,,2013-02-16 12:02:00,
2013-02-16 04:12:00,32.0,-99.9,-100.00,East,94,3.0,5.0,-999,-99.99,,,-99.99,,2013-02-16 12:12:00,
2013-02-16 05:02:00,28.0,-99.9,-100.00,ENE,58,1.0,2.0,-999,-99.99,,,-99.99,,2013-02-16 13:02:00,
2013-02-16 05:12:00,28.0,-99.9,-100.00,ENE,58,1.0,2.0,-999,-99.99,,,-99.99,,2013-02-16 13:12:00,
2013-02-16 06:01:00,28.0,-99.9,-100.00,SE,146,1.0,3.0,-999,-99.99,,,-99.99,,2013-02-16 14:01:00,
2013-02-16 06:11:00,28.0,-99.9,-100.00,SE,146,1.0,3.0,-999,-99.99,,,-99.99,,2013-02-16 14:11:00,
2013-02-16 07:02:00,28.0,-99.9,-100.00,NNE,17,1.0,2.0,-999,-99.99,,,-99.99,,2013-02-16 15:02:00,
2013-02-16 07:11:00,28.0,-99.9,-100.00,NNE,17,1.0,2.0,-999,-99.99,,,-99.99,,2013-02-16 15:11:00,
2013-02-16 08:02:00,27.0,-99.9,-100.00,NNE,30,1.0,2.0,-999,-99.99,,,-99.99,,2013-02-16 16:02:00,
2013-02-16 08:11:00,27.0,-99.9,-100.00,NNE,30,1.0,2.0,-999,-99.99,,,-99.99,,2013-02-16 16:11:00,
2013-02-16 09:01:00,30.0,-99.9,-100.00,ENE,71,1.0,2.0,-999,-99.99,,,-99.99,,2013-02-16 17:01:00,
2013-02-16 09:11:00,30.0,-99.9,-100.00,ENE,71,1.0,2.0,-999,-99.99,,,-99.99,,2013-02-16 17:11:00,
2013-02-16 10:02:00,36.0,-99.9,-100.00,SE,140,1.0,3.0,-999,-99.99,,,-99.99,,2013-02-16 18:02:00,
2013-02-16 10:11:00,36.0,-99.9,-100.00,SE,140,1.0,3.0,-999,-99.99,,,-99.99,,2013-02-16 18:11:00,
2013-02-16 11:02:00,39.0,-99.9,-100.00,NNE,26,2.0,5.0,-999,-99.99,,,-99.99,,2013-02-16 19:02:00,
2013-02-16 11:11:00,39.0,-99.9,-100.00,NNE,26,2.0,5.0,-999,-99.99,,,-99.99,,2013-02-16 19:11:00,
2013-02-16 12:02:00,44.0,-99.9,-100.00,SSE,151,3.0,7.0,-999,-99.99,,,-99.99,,2013-02-16 20:02:00,
2013-02-16 12:11:00,44.0,-99.9,-100.00,SSE,151,3.0,7.0,-999,-99.99,,,-99.99,,2013-02-16 20:11:00,
2013-02-16 13:02:00,46.0,-99.9,-100.00,SSE,149,2.0,5.0,-999,-99.99,,,-99.99,,2013-02-16 21:02:00,
2013-02-16 13:11:00,46.0,-99.9,-100.00,SSE,149,2.0,5.0,-999,-99.99,,,-99.99,,2013-02-16 21:11:00,
2013-02-16 14:02:00,47.0,-99.9,-100.00,ESE,121,3.0,7.0,-999,-99.99,,,-99.99,,2013-02-16 22:02:00,
2013-02-16 14:11:00,47.0,-99.9,-100.00,ESE,121,3.0,7.0,-999,-99.99,,,-99.99,,2013-02-16 22:11:00,
2013-02-16 15:02:00,55.0,-99.9,-100.00,SSW,202,3.0,9.0,-999,-99.99,,,-99.99,,2013-02-16 23:02:00,
2013-02-16 15:11:00,55.0,-99.9,-100.00,SSW,202,3.0,9.0,-999,-99.99,,,-99.99,,2013-02-16 23:11:00,
2013-02-16 16:02:00,58.0,-99.9,-100.00,West,259,3.0,14.0,-999,-99.99,,,-99.99,,2013-02-17 00:02:00,
2013-02-16 16:12:00,58.0,-99.9,-100.00,West,259,3.0,14.0,-999,-99.99,,,-99.99,,2013-02-17 00:12:00,
2013-02-16 17:01:00,57.0,-99.9,-100.00,West,273,13.0,22.0,-999,-99.99,,,-99.99,,2013-02-17 01:01:00,
2013-02-16 17:11:00,57.0,-99.9,-100.00,West,273,13.0,22.0,-999,-99.99,,,-99.99,,2013-02-17 01:11:00,
2013-02-16 18:01:00,51.0,-99.9,-100.00,NW,314,5.0,13.0,-999,-99.99,,,-99.99,,2013-02-17 02:01:00,
2013-02-16 18:11:00,51.0,-99.9,-100.00,NW,314,5.0,13.0,-999,-99.99,,,-99.99,,2013-02-17 02:11:00,
2013-02-16 19:02:00,46.0,-99.9,-100.00,WNW,301,12.0,20.0,-999,-99.99,,,-99.99,,2013-02-17 03:02:00,
2013-02-16 19:11:00,46.0,-99.9,-100.00,WNW,301,12.0,20.0,-999,-99.99,,,-99.99,,2013-02-17 03:11:00,
2013-02-16 20:01:00,45.0,-99.9,-100.00,NW,305,7.0,15.0,-999,-99.99,,,-99.99,,2013-02-17 04:01:00,
2013-02-16 20:11:00,45.0,-99.9,-100.00,NW,305,7.0,15.0,-999,-99.99,,,-99.99,,2013-02-17 04:11:00,
2013-02-16 21:02:00,40.0,-99.9,-100.00,WNW,291,3.0,8.0,-999,-99.99,,,-99.99,,2013-02-17 05:02:00,
2013-02-16 21:12:00,40.0,-99.9,-100.00,WNW,291,3.0,8.0,-999,-99.99,,,-99.99,,2013-02-17 05:12:00,
2013-02-16 22:02:00,38.0,-99.9,-100.00,NNW,336,3.0,10.0,-999,-99.99,,,-99.99,,2013-02-17 06:02:00,
2013-02-16 22:11:00,38.0,-99.9,-100.00,NNW,336,3.0,10.0,-999,-99.99,,,-99.99,,2013-02-17 06:11:00,
2013-02-16 23:02:00,36.0,-99.9,-100.00,SW,234,2.0,9.0,-999,-99.99,,,-99.99,,2013-02-17 07:02:00,
2013-02-16 23:11:00,36.0,-99.9,-100.00,SW,234,2.0,9.0,-999,-99.99,,,-99.99,,2013-02-17 07:11:00,